Time;durP1;ratioP1;P1;durP2;ratioP2;P2;SDS_P1;SDS_P2;PMS_P1;PMS_P2;Temp;Humidity;BMP_temperature;BMP_pressure;BME280_temperature;BME280_humidity;BME280_pressure;Samples;Min_cycle;Max_cycle;Signal;HPM_P1;HPM_P2
2021/12/25 00:02:21;;;;;;;;;8.60;6.60;;;;;5.05;89.01;98811.72;5088665;28;8846;-58
2021/12/25 00:04:49;;;;;;;;;5.20;4.00;;;;;5.04;88.74;98804.75;5088511;28;8886;-58
2021/12/25 00:07:17;;;;;;;;;7.20;7.20;;;;;5.03;88.77;98813.63;5088272;28;9627;-58
2021/12/25 00:09:45;;;;;;;;;7.00;6.00;;;;;5.00;89.22;98819.13;5087266;28;8830;-58
2021/12/25 00:12:13;;;;;;;;;4.80;4.80;;;;;4.99;89.19;98820.06;5086655;28;8842;-58
2021/12/25 00:14:41;;;;;;;;;4.40;3.60;;;;;4.98;88.65;98823.66;5086444;28;8989;-57
2021/12/25 00:17:08;;;;;;;;;3.40;3.00;;;;;4.97;89.37;98819.34;5089422;28;8846;-58
2021/12/25 00:19:36;;;;;;;;;3.60;2.80;;;;;4.94;89.05;98820.41;5088120;28;8971;-58
2021/12/25 00:22:04;;;;;;;;;3.00;3.00;;;;;4.93;88.69;98817.91;5087184;28;9521;-58
2021/12/25 00:24:32;;;;;;;;;1.00;1.00;;;;;4.91;89.41;98818.03;5089045;28;8867;-58
2021/12/25 00:27:06;;;;;;;;;3.00;3.00;;;;;4.90;88.99;98818.13;5088791;28;8887;-57
2021/12/25 00:29:53;;;;;;;;;1.00;1.00;;;;;4.88;89.13;98817.41;5089042;28;8845;-58
2021/12/25 00:32:44;;;;;;;;;6.00;4.00;;;;;4.85;89.26;98815.84;5088786;28;8833;-58
2021/12/25 00:35:12;;;;;;;;;6.60;5.20;;;;;4.81;89.07;98824.09;5089841;28;8850;-58
2021/12/25 00:37:39;;;;;;;;;3.00;3.00;;;;;4.79;88.88;98826.00;5083813;28;8960;-58
2021/12/25 00:40:07;;;;;;;;;3.60;3.60;;;;;4.77;89.56;98825.25;5082283;28;8881;-58
2021/12/25 00:42:35;;;;;;;;;7.20;7.20;;;;;4.73;89.48;98813.28;5088812;28;8848;-58
2021/12/25 00:45:03;;;;;;;;;6.00;6.00;;;;;4.70;89.00;98818.75;5089471;28;8849;-58
2021/12/25 00:47:31;;;;;;;;;5.20;4.00;;;;;4.66;89.79;98818.19;5088972;28;8865;-58
2021/12/25 00:49:58;;;;;;;;;4.00;3.40;;;;;4.64;89.66;98824.50;5087275;28;8830;-58
2021/12/25 00:52:27;;;;;;;;;3.00;3.00;;;;;4.60;88.83;98823.03;5088071;28;8856;-57
2021/12/25 00:54:54;;;;;;;;;3.80;3.60;;;;;4.56;89.21;98825.06;5085845;28;8846;-58
2021/12/25 00:57:22;;;;;;;;;3.40;3.00;;;;;4.55;89.53;98838.34;5088924;28;8845;-58
2021/12/25 00:59:50;;;;;;;;;6.00;5.60;;;;;4.51;89.16;98840.38;5088936;28;8857;-58
2021/12/25 01:02:18;;;;;;;;;4.00;3.60;;;;;4.48;89.24;98837.13;5087427;28;8864;-58
2021/12/25 01:04:46;;;;;;;;;1.40;1.40;;;;;4.45;89.67;98834.69;5089217;28;8870;-58
2021/12/25 01:07:14;;;;;;;;;3.20;3.00;;;;;4.45;89.28;98838.19;5088809;28;8987;-58
2021/12/25 01:09:46;;;;;;;;;3.00;3.00;;;;;4.44;89.72;98838.28;5088003;28;8852;-57
2021/12/25 01:12:15;;;;;;;;;3.00;3.00;;;;;4.41;89.54;98838.53;5089175;28;8980;-58
2021/12/25 01:14:48;;;;;;;;;3.60;3.60;;;;;4.40;88.96;98831.56;5089707;28;9000;-58
2021/12/25 01:26:12;;;;;;;;;5.60;4.00;;;;;4.28;89.55;98821.91;5092793;28;8908;-58
2021/12/25 01:29:10;;;;;;;;;6.40;6.40;;;;;4.22;89.15;98827.63;5092517;28;8968;-58
2021/12/25 01:31:44;;;;;;;;;4.00;3.40;;;;;4.17;89.34;98827.94;5092232;28;8846;-58
2021/12/25 01:37:01;;;;;;;;;7.00;6.80;;;;;4.19;89.73;98836.56;5091555;28;8868;-58
2021/12/25 01:39:44;;;;;;;;;8.60;7.00;;;;;4.18;89.08;98844.59;5090651;28;8830;-58
2021/12/25 01:47:49;;;;;;;;;5.60;5.60;;;;;4.16;89.92;98844.72;5090412;28;8873;-57
2021/12/25 01:50:17;;;;;;;;;4.00;4.00;;;;;4.15;89.11;98839.53;5089486;28;8960;-58
2021/12/25 01:52:45;;;;;;;;;5.20;3.80;;;;;4.13;89.31;98841.44;5089182;28;8919;-58
2021/12/25 01:55:12;;;;;;;;;3.80;3.60;;;;;4.12;89.22;98839.78;5091335;28;8972;-58
2021/12/25 01:57:41;;;;;;;;;6.80;6.80;;;;;4.09;89.22;98834.69;5090468;28;8854;-58
2021/12/25 02:00:09;;;;;;;;;9.40;6.00;;;;;4.07;89.15;98834.84;5091138;28;8887;-57
2021/12/25 02:02:36;;;;;;;;;5.60;5.60;;;;;4.04;89.50;98836.84;5089395;28;8841;-58
2021/12/25 02:05:05;;;;;;;;;7.40;7.00;;;;;4.04;89.07;98842.13;5090041;28;8876;-58
2021/12/25 02:07:32;;;;;;;;;4.80;4.80;;;;;4.04;88.92;98850.84;5088521;28;8885;-58
2021/12/25 02:10:00;;;;;;;;;6.60;6.60;;;;;4.02;89.57;98838.72;5089507;28;8872;-58
2021/12/25 02:12:28;;;;;;;;;7.00;6.20;;;;;3.98;89.23;98837.28;5089753;28;8846;-57
2021/12/25 02:15:01;;;;;;;;;13.40;9.40;;;;;3.94;89.09;98839.28;5091123;28;8852;-57
2021/12/25 02:17:46;;;;;;;;;11.60;9.80;;;;;3.91;89.00;98846.56;5089498;28;8830;-57
2021/12/25 02:20:17;;;;;;;;;4.00;3.40;;;;;3.87;89.74;98847.69;5090150;28;8830;-58
2021/12/25 02:22:45;;;;;;;;;8.00;7.40;;;;;3.84;89.28;98847.94;5090840;28;8850;-58
2021/12/25 02:25:13;;;;;;;;;5.40;5.40;;;;;3.81;89.54;98856.06;5089520;28;9532;-58
2021/12/25 02:27:41;;;;;;;;;11.20;9.80;;;;;3.77;89.21;98854.56;5090183;28;8899;-58
2021/12/25 02:30:09;;;;;;;;;6.40;3.80;;;;;3.74;89.50;98855.63;5090647;28;9516;-57
2021/12/25 02:32:37;;;;;;;;;6.80;4.40;;;;;3.72;89.22;98854.88;5089219;28;8850;-57
2021/12/25 02:35:04;;;;;;;;;9.00;8.60;;;;;3.72;89.38;98855.84;5089886;28;8846;-58
2021/12/25 02:37:32;;;;;;;;;7.00;6.00;;;;;3.70;89.27;98850.69;5088676;28;8829;-58
2021/12/25 02:39:59;;;;;;;;;10.40;8.20;;;;;3.68;89.58;98847.31;5088861;28;8849;-58
2021/12/25 02:42:28;;;;;;;;;11.20;6.40;;;;;3.66;89.61;98843.97;5090690;28;8834;-58
2021/12/25 02:44:55;;;;;;;;;6.80;6.20;;;;;3.64;89.03;98852.91;5090215;28;8833;-58
2021/12/25 02:47:23;;;;;;;;;6.00;4.00;;;;;3.62;89.66;98842.47;5090285;28;8862;-58
2021/12/25 02:49:54;;;;;;;;;10.00;9.20;;;;;3.63;89.15;98848.59;5089351;28;8856;-58
2021/12/25 02:52:22;;;;;;;;;6.80;6.20;;;;;3.60;89.66;98831.22;5089747;28;8834;-58
2021/12/25 02:54:49;;;;;;;;;9.00;7.40;;;;;3.59;89.09;98831.31;5089673;28;8849;-58
2021/12/25 02:57:17;;;;;;;;;1.80;1.40;;;;;3.58;89.03;98848.91;5089637;28;8845;-58
2021/12/25 02:59:45;;;;;;;;;6.60;6.40;;;;;3.55;89.85;98851.72;5088555;28;8842;-59
2021/12/25 03:02:13;;;;;;;;;6.40;6.40;;;;;3.53;89.52;98848.38;5088252;28;8842;-57
2021/12/25 03:04:41;;;;;;;;;9.80;6.80;;;;;3.52;89.28;98851.97;5088967;28;8869;-58
2021/12/25 03:07:08;;;;;;;;;10.00;8.20;;;;;3.52;89.21;98848.47;5089849;28;8858;-58
2021/12/25 03:09:36;;;;;;;;;9.00;7.00;;;;;3.51;89.63;98842.38;5087762;28;8829;-58
2021/12/25 03:12:06;;;;;;;;;7.40;7.40;;;;;3.51;89.65;98844.16;5090235;28;8849;-58
2021/12/25 03:14:37;;;;;;;;;4.40;4.00;;;;;3.49;89.35;98839.00;5088972;28;8857;-58
2021/12/25 03:17:04;;;;;;;;;10.80;10.80;;;;;3.47;89.24;98851.41;5091151;28;8826;-57
2021/12/25 03:19:33;;;;;;;;;8.60;8.60;;;;;3.46;89.53;98848.88;5089556;28;8845;-58
2021/12/25 03:22:01;;;;;;;;;8.60;8.20;;;;;3.46;89.70;98848.88;5090832;28;8977;-58
2021/12/25 03:24:29;;;;;;;;;8.60;8.20;;;;;3.43;89.67;98839.44;5089030;28;8845;-58
2021/12/25 03:26:57;;;;;;;;;8.40;6.60;;;;;3.42;89.22;98832.47;5089960;28;9008;-58
2021/12/25 03:29:24;;;;;;;;;8.20;8.20;;;;;3.40;89.15;98830.91;5089609;28;8884;-58
2021/12/25 03:31:53;;;;;;;;;6.80;5.60;;;;;3.37;89.42;98837.22;5090782;28;8976;-57
2021/12/25 03:34:20;;;;;;;;;3.20;2.20;;;;;3.35;89.33;98846.16;5088868;28;8852;-57
2021/12/25 03:36:48;;;;;;;;;7.00;6.40;;;;;3.34;88.97;98840.03;5089817;28;8988;-58
2021/12/25 03:39:15;;;;;;;;;0.80;0.40;;;;;3.33;89.37;98848.88;5089379;28;8857;-59
2021/12/25 03:41:43;;;;;;;;;9.60;9.20;;;;;3.33;89.16;98848.88;5090359;28;8826;-58
2021/12/25 03:44:11;;;;;;;;;8.00;7.80;;;;;3.34;89.46;98852.38;5090153;28;8854;-58
2021/12/25 03:46:40;;;;;;;;;9.80;9.60;;;;;3.32;89.47;98836.69;5088788;28;8842;-58
2021/12/25 03:49:14;;;;;;;;;5.20;4.40;;;;;3.31;88.88;98845.53;5089592;28;8834;-58
2021/12/25 03:57:39;;;;;;;;;5.80;5.80;;;;;3.25;88.64;98840.66;5006641;28;8850;-58
2021/12/25 04:00:07;;;;;;;;;6.80;6.00;;;;;3.22;89.64;98830.38;5006973;28;8847;-58
2021/12/25 04:02:42;;;;;;;;;7.40;6.20;;;;;3.20;89.29;98839.31;5049028;28;8869;-58
2021/12/25 04:05:16;;;;;;;;;9.00;6.40;;;;;3.16;89.49;98843.94;5090159;28;8845;-58
2021/12/25 04:10:26;;;;;;;;;7.00;5.80;;;;;3.13;89.01;98841.53;5083607;28;9699;-58
2021/12/25 04:12:54;;;;;;;;;6.00;6.00;;;;;3.11;88.96;98847.81;5089158;28;8846;-58
2021/12/25 04:15:21;;;;;;;;;3.00;1.00;;;;;3.11;89.31;98850.44;5088959;28;9514;-58
2021/12/25 04:17:49;;;;;;;;;4.00;3.60;;;;;3.09;88.92;98842.66;5088873;28;8846;-58
2021/12/25 04:20:17;;;;;;;;;7.00;7.00;;;;;3.09;89.62;98845.28;5088939;28;8838;-58
2021/12/25 04:22:50;;;;;;;;;5.20;4.00;;;;;3.08;89.01;98842.75;5090395;28;8882;-58
2021/12/25 04:25:23;;;;;;;;;5.20;3.00;;;;;3.06;89.28;98845.50;5088946;28;8846;-57
2021/12/25 04:27:51;;;;;;;;;6.20;6.00;;;;;3.04;89.45;98862.31;5089736;28;8858;-57
2021/12/25 04:30:29;;;;;;;;;5.60;5.60;;;;;3.01;89.29;98852.84;5089874;28;8846;-57
2021/12/25 05:03:29;;;;;;;;;7.80;6.80;;;;;2.76;89.17;98888.72;5094300;28;8857;-57
2021/12/25 05:05:57;;;;;;;;;6.80;6.00;;;;;2.73;89.14;98892.41;5094059;28;8846;-58
2021/12/25 05:08:25;;;;;;;;;4.60;4.40;;;;;2.72;89.16;98888.09;5092597;28;9491;-58
2021/12/25 05:10:54;;;;;;;;;6.60;6.00;;;;;2.73;89.51;98889.75;5093304;28;8841;-58
2021/12/25 05:13:22;;;;;;;;;8.60;8.60;;;;;2.72;88.86;98893.34;5093400;28;8868;-58
2021/12/25 05:15:50;;;;;;;;;8.20;6.80;;;;;2.70;88.81;98887.34;5093358;28;8834;-58
2021/12/25 05:18:17;;;;;;;;;4.80;3.00;;;;;2.71;89.41;98899.53;5093447;28;8914;-58
2021/12/25 05:20:45;;;;;;;;;4.40;3.60;;;;;2.71;89.25;98896.06;5093257;28;8822;-58
2021/12/25 05:23:13;;;;;;;;;3.80;3.80;;;;;2.70;88.80;98897.00;5091475;28;8852;-58
2021/12/25 05:25:41;;;;;;;;;5.20;5.20;;;;;2.70;89.21;98902.25;5093385;28;8846;-58
2021/12/25 05:28:08;;;;;;;;;8.20;7.00;;;;;2.69;88.82;98909.31;5092026;28;9506;-57
2021/12/25 05:30:37;;;;;;;;;6.20;6.20;;;;;2.68;88.99;98907.63;5091238;28;8942;-57
2021/12/25 05:33:06;;;;;;;;;6.00;6.00;;;;;2.69;88.79;98913.72;5090798;28;8842;-58
2021/12/25 05:35:33;;;;;;;;;4.80;3.80;;;;;2.67;88.67;98905.97;5093229;28;9537;-58
2021/12/25 05:38:01;;;;;;;;;7.00;6.40;;;;;2.66;89.23;98911.28;5092331;28;8845;-58
2021/12/25 05:40:28;;;;;;;;;0.80;0.80;;;;;2.65;89.15;98907.81;5091822;28;8874;-58
2021/12/25 05:42:59;;;;;;;;;7.60;6.40;;;;;2.65;89.21;98910.44;5092896;28;8860;-57
2021/12/25 05:45:26;;;;;;;;;9.40;5.60;;;;;2.64;88.46;98911.38;5090343;28;8838;-58
2021/12/25 05:47:54;;;;;;;;;3.00;1.40;;;;;2.62;88.60;98913.28;5092075;28;8846;-57
2021/12/25 05:50:21;;;;;;;;;8.20;7.80;;;;;2.61;88.61;98911.59;5091564;28;8944;-58
2021/12/25 05:52:50;;;;;;;;;5.00;3.80;;;;;2.60;89.06;98917.78;5091891;28;8846;-58
2021/12/25 05:55:17;;;;;;;;;6.40;6.00;;;;;2.60;88.92;98914.31;5091168;28;8960;-57
2021/12/25 05:57:45;;;;;;;;;4.80;4.80;;;;;2.59;89.23;98923.16;5092040;28;8845;-58
2021/12/25 06:00:13;;;;;;;;;7.00;6.00;;;;;2.57;88.56;98920.59;5091122;28;8852;-58
2021/12/25 06:02:41;;;;;;;;;4.80;4.80;;;;;2.57;88.33;98925.03;5092200;28;8850;-57
2021/12/25 06:05:12;;;;;;;;;3.20;1.00;;;;;2.56;88.95;98924.19;5090834;28;8927;-58
2021/12/25 06:07:40;;;;;;;;;5.60;5.20;;;;;2.57;88.92;98931.09;5090408;28;8912;-58
2021/12/25 06:10:09;;;;;;;;;6.40;6.20;;;;;2.56;88.98;98926.81;5091073;28;8846;-58
2021/12/25 06:12:37;;;;;;;;;3.00;3.00;;;;;2.55;88.71;98933.00;5091104;28;8992;-57
2021/12/25 06:15:05;;;;;;;;;5.60;3.80;;;;;2.53;88.84;98929.63;5091318;28;8857;-58
2021/12/25 06:17:32;;;;;;;;;6.00;4.80;;;;;2.51;88.33;98926.25;5089979;28;8879;-58
2021/12/25 06:20:00;;;;;;;;;4.80;4.80;;;;;2.51;88.80;98931.50;5091149;28;9461;-57
2021/12/25 06:22:28;;;;;;;;;4.40;4.40;;;;;2.48;88.41;98929.06;5090630;28;8841;-58
2021/12/25 06:24:55;;;;;;;;;1.80;1.40;;;;;2.48;88.13;98930.84;5091014;28;8838;-58
2021/12/25 06:27:24;;;;;;;;;6.80;6.80;;;;;2.45;88.34;98934.53;5090274;28;8906;-58
2021/12/25 06:29:52;;;;;;;;;4.40;3.00;;;;;2.43;88.54;98930.31;5090824;28;8958;-58
2021/12/25 06:32:20;;;;;;;;;6.00;4.40;;;;;2.43;88.68;98932.94;5091117;28;8857;-58
2021/12/25 06:34:47;;;;;;;;;3.40;3.40;;;;;2.43;88.78;98938.19;5091895;28;8997;-58
2021/12/25 06:37:15;;;;;;;;;7.00;7.00;;;;;2.43;88.30;98946.06;5091329;28;8830;-59
2021/12/25 06:39:42;;;;;;;;;4.60;3.60;;;;;2.43;88.19;98944.28;5090705;28;8838;-58
2021/12/25 06:42:10;;;;;;;;;3.00;1.80;;;;;2.43;88.27;98944.28;5089586;28;8850;-58
2021/12/25 06:44:38;;;;;;;;;5.60;5.60;;;;;2.43;88.41;98935.56;5090204;28;8880;-58
2021/12/25 06:47:06;;;;;;;;;6.40;6.00;;;;;2.42;88.50;98945.22;5091147;28;8864;-58
2021/12/25 06:49:33;;;;;;;;;5.20;5.20;;;;;2.42;88.56;98947.84;5089887;28;8834;-58
2021/12/25 06:52:07;;;;;;;;;5.20;5.20;;;;;2.40;88.10;98949.72;5090616;28;8893;-58
2021/12/25 06:54:34;;;;;;;;;6.20;6.00;;;;;2.39;87.68;98947.19;5089125;28;8848;-58
2021/12/25 06:57:03;;;;;;;;;3.60;3.60;;;;;2.37;88.40;98943.81;5090737;28;8826;-58
2021/12/25 06:59:31;;;;;;;;;4.40;4.00;;;;;2.36;88.08;98963.16;5089003;28;8966;-58
2021/12/25 07:01:59;;;;;;;;;3.40;3.20;;;;;2.35;88.39;98962.28;5090101;28;8860;-58
2021/12/25 07:04:27;;;;;;;;;3.00;3.00;;;;;2.35;88.24;98961.47;5089081;28;8934;-58
2021/12/25 07:06:54;;;;;;;;;4.00;4.00;;;;;2.34;88.55;98965.88;5089245;28;8834;-58
2021/12/25 07:09:22;;;;;;;;;1.80;1.00;;;;;2.36;88.42;98974.47;5088959;28;8860;-58
2021/12/25 07:11:50;;;;;;;;;5.60;4.40;;;;;2.35;87.68;98975.44;5089145;28;8854;-58
2021/12/25 07:14:22;;;;;;;;;2.20;2.20;;;;;2.35;88.13;98983.31;5089983;28;8854;-58
2021/12/25 07:16:50;;;;;;;;;6.80;4.00;;;;;2.33;88.03;98971.19;5089730;28;8846;-58
2021/12/25 07:19:17;;;;;;;;;5.60;4.00;;;;;2.31;88.05;98976.56;5089302;28;8823;-58
2021/12/25 07:21:45;;;;;;;;;5.20;3.00;;;;;2.30;87.86;98981.91;5089139;28;8903;-58
2021/12/25 07:24:14;;;;;;;;;9.40;9.00;;;;;2.29;87.68;98988.94;5088816;28;8838;-58
2021/12/25 07:26:42;;;;;;;;;3.00;1.80;;;;;2.28;87.89;98992.50;5089592;28;8846;-58
2021/12/25 07:29:09;;;;;;;;;3.60;3.60;;;;;2.27;88.19;98990.81;5088500;28;8846;-58
2021/12/25 07:31:37;;;;;;;;;6.80;6.40;;;;;2.27;87.81;98996.06;5089508;28;8868;-58
2021/12/25 07:34:05;;;;;;;;;1.00;1.00;;;;;2.26;88.22;98993.56;5088546;28;8861;-58
2021/12/25 07:36:33;;;;;;;;;6.60;5.20;;;;;2.24;87.86;98998.88;5090020;28;8856;-58
2021/12/25 07:39:01;;;;;;;;;3.80;3.60;;;;;2.23;87.67;99002.47;5090699;28;8841;-58
2021/12/25 07:41:28;;;;;;;;;3.80;3.60;;;;;2.22;88.24;98995.53;5088201;28;8861;-58
2021/12/25 07:43:56;;;;;;;;;4.40;4.00;;;;;2.20;88.22;99000.00;5088395;28;8846;-58
2021/12/25 07:46:24;;;;;;;;;4.00;4.00;;;;;2.21;87.48;99003.50;5090540;28;8853;-57
2021/12/25 07:48:52;;;;;;;;;6.00;6.00;;;;;2.19;88.00;99003.56;5090607;28;8850;-58
2021/12/25 07:51:19;;;;;;;;;0.00;0.00;;;;;2.18;87.61;99009.75;5090535;28;8868;-58
2021/12/25 07:53:47;;;;;;;;;3.00;3.00;;;;;2.16;87.53;99019.53;5090797;28;8855;-58
2021/12/25 07:56:15;;;;;;;;;3.00;3.00;;;;;2.15;87.64;99012.59;5089669;28;8854;-58
2021/12/25 07:58:43;;;;;;;;;4.00;4.00;;;;;2.13;88.24;99019.69;5087806;28;8849;-58
2021/12/25 08:01:10;;;;;;;;;3.20;3.20;;;;;2.12;87.67;99022.44;5089040;28;8853;-58
2021/12/25 08:03:39;;;;;;;;;5.60;5.60;;;;;2.10;87.93;99025.13;5088363;28;8926;-58
2021/12/25 08:06:07;;;;;;;;;3.20;3.20;;;;;2.10;87.42;99033.00;5089992;28;8846;-58
2021/12/25 08:08:35;;;;;;;;;7.00;6.20;;;;;2.12;87.49;99028.50;5088081;28;8838;-57
2021/12/25 08:11:02;;;;;;;;;5.20;4.40;;;;;2.11;88.03;99032.06;5088431;28;8885;-57
2021/12/25 08:13:30;;;;;;;;;2.60;2.60;;;;;2.10;87.64;99035.63;5089794;28;8868;-57
2021/12/25 08:15:58;;;;;;;;;6.20;5.20;;;;;2.09;87.58;99035.72;5088429;28;8887;-57
2021/12/25 08:18:26;;;;;;;;;3.80;3.00;;;;;2.10;88.06;99045.28;5087255;28;8854;-58
2021/12/25 08:20:53;;;;;;;;;4.00;3.80;;;;;2.08;87.32;99037.53;5089169;28;8830;-58
2021/12/25 08:23:21;;;;;;;;;5.60;4.60;;;;;2.07;87.95;99040.22;5090033;28;8838;-58
2021/12/25 08:25:49;;;;;;;;;4.00;4.00;;;;;2.07;87.46;99038.47;5088807;28;9579;-58
2021/12/25 08:28:17;;;;;;;;;3.00;3.00;;;;;2.06;87.09;99044.63;5090153;28;8947;-57
2021/12/25 08:30:44;;;;;;;;;3.00;3.00;;;;;2.07;87.19;99061.22;5093380;28;8838;-57
2021/12/25 08:33:12;;;;;;;;;3.00;3.00;;;;;2.05;87.62;99052.59;5093249;28;8846;-58
2021/12/25 08:35:40;;;;;;;;;1.40;1.00;;;;;2.04;87.59;99062.25;5094043;28;8858;-58
2021/12/25 08:38:11;;;;;;;;;3.60;3.40;;;;;2.03;87.61;99062.34;5093516;28;8864;-58
2021/12/25 08:40:39;;;;;;;;;3.20;3.00;;;;;2.04;87.37;99062.25;5093465;28;8873;-57
2021/12/25 08:43:07;;;;;;;;;6.40;4.00;;;;;2.04;87.17;99062.25;5093661;28;8837;-57
2021/12/25 08:45:47;;;;;;;;;2.60;1.00;;;;;2.04;86.99;99058.78;5093439;28;8834;-57
2021/12/25 08:48:14;;;;;;;;;5.20;3.80;;;;;2.04;87.34;99061.44;5092540;28;8854;-58
2021/12/25 08:50:43;;;;;;;;;3.40;3.40;;;;;2.03;86.89;99055.31;5093281;28;8853;-58
2021/12/25 08:53:11;;;;;;;;;1.40;1.40;;;;;2.04;87.57;99064.88;5093824;28;8871;-57
2021/12/25 08:55:38;;;;;;;;;1.00;1.00;;;;;2.03;86.70;99063.19;5093256;28;8834;-57
2021/12/25 08:58:06;;;;;;;;;7.00;6.40;;;;;2.04;86.99;99067.50;5092673;28;8842;-58
2021/12/25 09:00:34;;;;;;;;;4.80;1.80;;;;;2.05;86.71;99073.59;5089578;28;8834;-58
2021/12/25 09:03:01;;;;;;;;;3.00;1.80;;;;;2.08;86.92;99076.91;5090098;28;8943;-58
2021/12/25 09:05:29;;;;;;;;;5.20;3.80;;;;;2.12;87.36;99078.38;5092148;28;9040;-58
2021/12/25 09:07:57;;;;;;;;;3.00;1.40;;;;;2.14;86.76;99084.38;5091676;28;8834;-58
2021/12/25 09:10:24;;;;;;;;;1.00;1.00;;;;;2.16;86.66;99087.78;5090194;28;8873;-58
2021/12/25 09:12:54;;;;;;;;;3.80;3.00;;;;;2.15;87.11;99083.47;5093016;28;8988;-58
2021/12/25 09:15:22;;;;;;;;;1.40;1.00;;;;;2.16;86.92;99093.03;5078460;28;8861;-58
2021/12/25 09:17:49;;;;;;;;;1.40;1.40;;;;;2.16;86.71;99090.41;5092339;28;8988;-58
2021/12/25 09:20:17;;;;;;;;;1.00;1.00;;;;;2.15;86.54;99090.50;5092695;28;8849;-58
2021/12/25 09:22:45;;;;;;;;;1.80;1.00;;;;;2.14;86.98;99094.88;5090496;28;8838;-58
2021/12/25 09:25:13;;;;;;;;;1.00;1.00;;;;;2.16;86.70;99103.53;5092743;28;8850;-58
2021/12/25 09:27:40;;;;;;;;;3.20;3.00;;;;;2.14;86.54;99105.38;5091456;28;8889;-57
2021/12/25 09:30:08;;;;;;;;;3.00;3.00;;;;;2.11;86.58;99110.00;5091639;28;8853;-58
2021/12/25 09:32:36;;;;;;;;;1.80;1.00;;;;;2.10;86.71;99111.78;5091991;28;8850;-57
2021/12/25 09:35:04;;;;;;;;;0.60;0.40;;;;;2.08;86.66;99107.53;5091874;28;8853;-57
2021/12/25 09:37:31;;;;;;;;;0.60;0.60;;;;;2.07;86.37;99111.09;5091362;28;8842;-57
2021/12/25 09:39:59;;;;;;;;;1.00;0.80;;;;;2.02;85.95;99105.28;5088920;28;8899;-57
2021/12/25 09:42:27;;;;;;;;;1.40;1.00;;;;;1.98;86.21;99120.34;5090707;28;8845;-58
2021/12/25 09:44:54;;;;;;;;;0.80;0.40;;;;;1.96;86.49;99116.16;5090560;28;8838;-58
2021/12/25 09:47:22;;;;;;;;;1.40;1.00;;;;;1.94;86.61;99121.47;5070691;28;8848;-57
2021/12/25 09:49:50;;;;;;;;;0.40;0.40;;;;;1.92;86.33;99119.88;5069994;28;9554;-57
2021/12/25 09:52:18;;;;;;;;;1.00;1.00;;;;;1.91;86.42;99121.63;5071320;28;8832;-57
2021/12/25 09:54:45;;;;;;;;;1.00;1.00;;;;;1.91;85.75;99124.25;5068910;28;8844;-57
2021/12/25 09:57:14;;;;;;;;;0.80;0.80;;;;;1.87;86.25;99133.28;5069807;28;8836;-57
2021/12/25 09:59:42;;;;;;;;;1.40;0.60;;;;;1.85;85.57;99129.03;5070190;28;8925;-57
2021/12/25 10:02:10;;;;;;;;;1.00;1.00;;;;;1.81;85.73;99124.91;5067734;28;9139;-57
2021/12/25 10:04:38;;;;;;;;;1.40;1.40;;;;;1.76;85.84;99134.81;5064258;28;8987;-57
2021/12/25 10:07:05;;;;;;;;;1.00;1.00;;;;;1.71;86.20;99129.84;5069450;28;8864;-56
2021/12/25 10:09:33;;;;;;;;;3.00;1.00;;;;;1.67;85.49;99133.56;5068863;28;9928;-58
2021/12/25 10:12:01;;;;;;;;;2.60;1.00;;;;;1.65;85.52;99132.81;5068784;28;8995;-57
2021/12/25 10:14:34;;;;;;;;;1.00;1.00;;;;;1.66;85.86;99138.91;5069793;28;8921;-57
2021/12/25 10:17:02;;;;;;;;;1.00;1.00;;;;;1.65;85.59;99130.19;5085746;28;8822;-57
2021/12/25 10:19:31;;;;;;;;;1.40;0.80;;;;;1.67;86.05;99135.34;5088787;28;9914;-57
2021/12/25 10:21:58;;;;;;;;;1.40;1.00;;;;;1.70;85.68;99136.03;5090517;28;8837;-57
2021/12/25 10:24:28;;;;;;;;;1.40;1.40;;;;;1.73;85.46;99135.84;5089689;28;8838;-58
2021/12/25 10:26:55;;;;;;;;;1.00;1.00;;;;;1.75;85.65;99133.97;5089337;28;8889;-57
2021/12/25 10:29:23;;;;;;;;;1.20;0.60;;;;;1.78;85.49;99132.94;5089375;28;8850;-58
2021/12/25 10:31:51;;;;;;;;;1.00;1.00;;;;;1.83;85.07;99129.13;5090876;28;8858;-57
2021/12/25 10:34:19;;;;;;;;;0.40;0.40;;;;;1.86;85.54;99126.34;5091331;28;8934;-57
2021/12/25 10:36:46;;;;;;;;;0.80;0.40;;;;;1.92;85.20;99128.59;5088447;28;8866;-57
2021/12/25 10:39:14;;;;;;;;;1.40;1.00;;;;;1.98;85.47;99125.59;5089266;28;8931;-57
2021/12/25 10:41:42;;;;;;;;;0.40;0.40;;;;;2.03;84.95;99123.56;5088480;28;9499;-57
2021/12/25 10:44:10;;;;;;;;;1.80;0.40;;;;;2.05;84.46;99120.84;5088712;28;8849;-57
2021/12/25 10:46:38;;;;;;;;;2.60;2.60;;;;;2.05;84.68;99132.19;5085735;28;8838;-57
2021/12/25 10:49:08;;;;;;;;;0.80;0.60;;;;;2.05;84.25;99120.84;5080195;28;8852;-57
2021/12/25 10:51:36;;;;;;;;;1.00;1.00;;;;;2.07;83.89;99132.97;5085330;28;8846;-57
2021/12/25 10:54:04;;;;;;;;;1.80;1.80;;;;;2.07;84.66;99134.72;5085853;28;8861;-57
2021/12/25 10:56:31;;;;;;;;;0.00;0.00;;;;;2.05;84.53;99126.94;5085540;28;8884;-56
2021/12/25 10:58:59;;;;;;;;;1.00;1.00;;;;;2.02;83.53;99135.00;5086572;28;8842;-57
2021/12/25 11:01:27;;;;;;;;;0.20;0.20;;;;;1.99;83.67;99135.16;5087844;28;8849;-57
2021/12/25 11:03:56;;;;;;;;;0.00;0.00;;;;;1.95;83.87;99138.06;5087998;28;8842;-57
2021/12/25 11:06:24;;;;;;;;;0.00;0.00;;;;;1.90;83.98;99140.13;5087533;28;8838;-57
2021/12/25 11:08:52;;;;;;;;;0.60;0.60;;;;;1.82;84.45;99135.31;5089389;28;8862;-57
2021/12/25 11:11:19;;;;;;;;;1.00;1.00;;;;;1.75;84.08;99135.75;5089235;28;8858;-56
2021/12/25 11:13:50;;;;;;;;;1.80;1.00;;;;;1.68;84.33;99137.84;5088233;28;8846;-56
2021/12/25 11:16:22;;;;;;;;;3.80;1.40;;;;;1.61;84.24;99136.50;5089603;28;8837;-56
2021/12/25 11:18:53;;;;;;;;;1.00;1.00;;;;;1.57;84.10;99140.25;5087938;28;8838;-56
2021/12/25 11:21:21;;;;;;;;;0.40;0.00;;;;;1.61;83.99;99135.69;5086552;28;8834;-56
2021/12/25 11:23:48;;;;;;;;;1.00;1.00;;;;;1.82;83.89;99137.94;5089099;28;8834;-57
2021/12/25 11:26:16;;;;;;;;;1.00;1.00;;;;;1.95;83.21;99138.91;5088166;28;8834;-57
2021/12/25 11:28:44;;;;;;;;;1.40;1.40;;;;;2.01;82.92;99133.31;5087502;28;8860;-56
2021/12/25 11:31:12;;;;;;;;;0.00;0.00;;;;;1.93;82.89;99132.91;5088335;28;8853;-57
2021/12/25 11:33:40;;;;;;;;;1.00;1.00;;;;;1.86;83.38;99142.06;5089857;28;8846;-57
2021/12/25 11:36:07;;;;;;;;;0.20;0.00;;;;;1.83;82.64;99131.75;5089746;28;8854;-56
2021/12/25 11:38:35;;;;;;;;;0.00;0.00;;;;;1.83;82.85;99133.53;5086774;28;8837;-57
2021/12/25 11:41:03;;;;;;;;;0.00;0.00;;;;;1.98;82.60;99136.09;5087840;28;9503;-57
2021/12/25 11:43:31;;;;;;;;;0.80;0.80;;;;;2.35;81.99;99148.75;5087765;28;8848;-57
2021/12/25 11:45:59;;;;;;;;;0.80;0.00;;;;;2.67;81.66;99137.19;5086498;28;8907;-57
2021/12/25 11:48:27;;;;;;;;;1.00;1.00;;;;;3.17;80.24;99137.53;5088209;28;8857;-57
2021/12/25 11:50:54;;;;;;;;;0.00;0.00;;;;;3.66;79.27;99135.25;5086763;28;8842;-57
2021/12/25 11:53:25;;;;;;;;;0.60;0.00;;;;;4.07;78.36;99128.97;5088476;28;8846;-57
2021/12/25 11:56:13;;;;;;;;;0.20;0.20;;;;;4.33;77.62;99121.00;5086769;28;8872;-57
2021/12/25 11:58:41;;;;;;;;;1.00;1.00;;;;;4.53;77.13;99114.38;5086159;28;8876;-57
2021/12/25 12:01:09;;;;;;;;;0.00;0.00;;;;;4.77;76.82;99112.66;5086687;28;8822;-57
2021/12/25 12:03:37;;;;;;;;;0.00;0.00;;;;;4.89;75.96;99111.84;5086102;28;8837;-57
2021/12/25 12:06:05;;;;;;;;;0.00;0.00;;;;;4.79;76.22;99110.78;5085604;28;8924;-57
2021/12/25 12:08:32;;;;;;;;;1.00;1.00;;;;;4.71;75.89;99118.41;5086317;28;8907;-57
2021/12/25 12:11:01;;;;;;;;;1.00;1.00;;;;;4.76;75.49;99116.25;5086953;28;8842;-56
2021/12/25 12:13:29;;;;;;;;;0.00;0.00;;;;;4.71;75.62;99118.41;5087065;28;8880;-57
2021/12/25 12:15:57;;;;;;;;;0.20;0.20;;;;;4.49;75.77;99105.81;5087728;28;8850;-57
2021/12/25 12:18:25;;;;;;;;;1.00;0.20;;;;;4.43;75.97;99108.06;5088533;28;8976;-57
2021/12/25 12:21:05;;;;;;;;;0.00;0.00;;;;;4.51;75.43;99105.72;5088319;28;8856;-57
2021/12/25 12:23:41;;;;;;;;;1.00;1.00;;;;;4.62;75.52;99100.56;5088453;28;8854;-57
2021/12/25 12:26:10;;;;;;;;;0.00;0.00;;;;;4.50;75.28;99099.59;5087246;28;8834;-57
2021/12/25 12:28:38;;;;;;;;;1.00;1.00;;;;;4.35;76.08;99099.81;5086787;28;8873;-57
2021/12/25 12:31:05;;;;;;;;;0.80;0.00;;;;;4.19;76.31;99094.72;5087826;28;8846;-57
2021/12/25 12:33:33;;;;;;;;;0.00;0.00;;;;;4.08;76.21;99112.22;5084107;28;8846;-57
2021/12/25 12:36:01;;;;;;;;;2.60;1.00;;;;;4.01;75.97;99101.25;5088119;28;8865;-57
2021/12/25 12:38:37;;;;;;;;;0.80;0.80;;;;;3.99;76.58;99097.03;5087676;28;8870;-57
2021/12/25 12:41:05;;;;;;;;;1.00;1.00;;;;;3.85;76.16;99099.72;5085598;28;8834;-56
2021/12/25 12:43:33;;;;;;;;;1.00;1.00;;;;;3.67;76.67;99107.03;5084672;28;8870;-57
2021/12/25 12:46:01;;;;;;;;;1.00;0.00;;;;;3.61;76.53;99111.88;5087692;28;8876;-57
2021/12/25 12:48:29;;;;;;;;;0.00;0.00;;;;;3.58;76.58;99106.81;5086776;28;8845;-57
2021/12/25 12:50:57;;;;;;;;;0.00;0.00;;;;;3.51;76.64;99116.03;5087075;28;8849;-57
2021/12/25 12:53:25;;;;;;;;;0.60;0.60;;;;;3.43;76.92;99114.84;5087541;28;8876;-57
2021/12/25 12:55:53;;;;;;;;;1.00;1.00;;;;;3.35;76.38;99120.59;5088358;28;8858;-57